aviador You're here:

CYHD Decoded Metar

DRYDEN in ON, CANADA
Report Time2018-02-22 14:00:00
UTC Time2018-02-22 15:02:34
Flight Rules vfr VFR
Wind170° at 09 kt
W.Decomp.*RWY 12: 5.8 kt HW 6.9 kt RCW
RWY 24: 3.1 kt HW 8.5 kt LCW
W.Rank170° ranks 11
Current wind is above 170° avg. (8.3)
Visibility9999 m
Phenomena:N/A
Clouds:N/A
Expected CloudBase > 800 ft AGL from Temp-Dew spread
CeilingNone
Temp-20°C (ISA -32)
Dew Point-22°C (84% RH)
AAT-26.9°C
QNH1032 hPa
Density Alt-3,402 ft
Elevation1,355 ft
Report Wrong Elevation
Raw Report
CYHD 221400Z AUTO 17009KT 9SM CLR M20/M22 A3047 RMK SLP364=

Extra information for CYHD:More info

Metar Taf Metar & Taf Last 4 Metars F.Rules Stats Wind Profile Meteogram Temp Stats Airport Information Weather charts Add Link Nearby VenuesMetar ALERT Operation Metar Decoded Social comments